createdAt,value
2018-06-25T00:00:11.453Z,101578.11
2018-06-25T00:02:40.484Z,101583.29
2018-06-25T00:05:08.901Z,101581.56
2018-06-25T00:07:37.312Z,101588.73
2018-06-25T00:10:05.750Z,101585.27
2018-06-25T00:12:34.172Z,101586.55
2018-06-25T00:15:02.582Z,101581.81
2018-06-25T00:17:30.998Z,101585.28
2018-06-25T00:19:59.435Z,101589.54
2018-06-25T00:22:27.928Z,101589.11
2018-06-25T00:24:56.310Z,101577.52
2018-06-25T00:27:24.709Z,101583.13
2018-06-25T00:29:54.091Z,101589.56
2018-06-25T00:32:22.499Z,101589.55
2018-06-25T00:34:51.071Z,101591.30
2018-06-25T00:37:19.600Z,101591.70
2018-06-25T00:39:48.015Z,101596.86
2018-06-25T00:42:16.447Z,101592.97
2018-06-25T00:44:44.879Z,101599.86
2018-06-25T00:47:13.276Z,101595.53
2018-06-25T00:49:41.735Z,101595.56
2018-06-25T00:52:10.151Z,101591.70
2018-06-25T00:54:39.060Z,101591.28
2018-06-25T00:57:08.280Z,101589.56
2018-06-25T00:59:49.686Z,101584.42
2018-06-25T01:02:18.140Z,101586.12
2018-06-25T01:04:47.372Z,101578.38
2018-06-25T01:07:15.965Z,101574.09
2018-06-25T01:09:44.381Z,101584.52
2018-06-25T01:12:13.427Z,101581.47
2018-06-25T01:14:43.258Z,101585.72
2018-06-25T01:17:11.930Z,101585.80
2018-06-25T01:19:40.447Z,101578.82
2018-06-25T01:22:09.931Z,101583.54
2018-06-25T01:24:38.808Z,101585.27
2018-06-25T01:27:08.972Z,101583.11
2018-06-25T01:29:38.942Z,101589.58
2018-06-25T01:32:07.468Z,101585.69
2018-06-25T01:34:35.912Z,101587.00
2018-06-25T01:37:04.459Z,101594.73
2018-06-25T01:39:33.525Z,101584.84
2018-06-25T01:42:03.094Z,101585.68
2018-06-25T01:44:31.593Z,101578.39
2018-06-25T01:47:00.101Z,101582.25
2018-06-25T01:49:28.622Z,101581.80
2018-06-25T01:51:56.999Z,101587.39
2018-06-25T01:54:25.408Z,101583.02
2018-06-25T01:56:53.859Z,101583.87
2018-06-25T01:59:22.299Z,101585.14
2018-06-25T02:01:50.716Z,101585.97
2018-06-25T02:04:19.161Z,101593.70
2018-06-25T02:06:47.651Z,101596.23
2018-06-25T02:09:16.089Z,101596.67
2018-06-25T02:11:44.522Z,101600.47
2018-06-25T02:14:12.989Z,101597.11
2018-06-25T02:16:41.412Z,101595.45
2018-06-25T02:19:09.832Z,101598.05
2018-06-25T02:21:38.237Z,101595.10
2018-06-25T02:24:06.645Z,101589.95
2018-06-25T02:26:35.218Z,101589.08
2018-06-25T02:29:03.972Z,101589.08
2018-06-25T02:31:32.802Z,101594.60
2018-06-25T02:34:01.222Z,101594.61
2018-06-25T02:36:30.096Z,101591.67
2018-06-25T02:38:58.477Z,101596.44
2018-06-25T02:41:27.019Z,101593.80
2018-06-25T02:43:55.420Z,101587.78
2018-06-25T02:46:23.804Z,101593.75
2018-06-25T02:48:52.231Z,101593.27
2018-06-25T02:51:20.608Z,101591.56
2018-06-25T02:53:49.017Z,101596.31
2018-06-25T02:56:17.408Z,101586.44
2018-06-25T02:58:45.862Z,101592.02
2018-06-25T03:01:14.269Z,101601.10
2018-06-25T03:03:43.461Z,101598.53
2018-06-25T03:06:11.878Z,101603.27
2018-06-25T03:08:40.260Z,101596.39
2018-06-25T03:11:08.734Z,101606.63
2018-06-25T03:13:37.084Z,101606.17
2018-06-25T03:16:05.556Z,101614.73
2018-06-25T03:18:34.270Z,101602.25
2018-06-25T03:21:02.673Z,101604.76
2018-06-25T03:23:31.102Z,101609.89
2018-06-25T03:25:59.487Z,101607.39
2018-06-25T03:28:27.880Z,101615.05
2018-06-25T03:30:56.269Z,101616.80
2018-06-25T03:33:24.674Z,101614.30
2018-06-25T03:35:53.097Z,101621.15
2018-06-25T03:38:21.522Z,101627.05
2018-06-25T03:40:49.929Z,101627.47
2018-06-25T03:43:18.389Z,101621.08
2018-06-25T03:45:46.756Z,101622.80
2018-06-25T03:48:15.216Z,101622.28
2018-06-25T03:50:43.595Z,101622.27
2018-06-25T03:53:11.987Z,101625.22
2018-06-25T03:55:40.435Z,101622.64
2018-06-25T03:58:08.811Z,101623.13
2018-06-25T04:00:37.404Z,101627.44
2018-06-25T04:03:05.993Z,101625.69
2018-06-25T04:05:34.780Z,101628.27
2018-06-25T04:08:03.192Z,101625.73
2018-06-25T04:10:31.644Z,101634.73
2018-06-25T04:13:00.069Z,101635.94
2018-06-25T04:15:28.532Z,101635.99
2018-06-25T04:17:56.959Z,101627.44
2018-06-25T04:20:25.400Z,101627.84
2018-06-25T04:22:53.803Z,101632.58
2018-06-25T04:25:22.495Z,101633.80
2018-06-25T04:27:51.023Z,101629.98
2018-06-25T04:30:19.466Z,101638.19
2018-06-25T04:32:47.923Z,101632.20
2018-06-25T04:35:16.281Z,101636.07
2018-06-25T04:37:45.113Z,101641.69
2018-06-25T04:40:13.558Z,101642.14
2018-06-25T04:42:41.930Z,101646.48
2018-06-25T04:45:10.309Z,101647.36
2018-06-25T04:47:38.807Z,101650.39
2018-06-25T04:50:07.240Z,101644.38
2018-06-25T04:52:35.763Z,101647.43
2018-06-25T04:55:04.377Z,101648.79
2018-06-25T04:57:32.961Z,101647.07
2018-06-25T05:00:01.790Z,101652.95
2018-06-25T05:02:30.230Z,101652.16
2018-06-25T05:04:58.636Z,101646.67
2018-06-25T05:07:27.046Z,101651.00
2018-06-25T05:09:55.522Z,101654.42
2018-06-25T05:12:23.904Z,101655.27
2018-06-25T05:14:53.151Z,101668.19
2018-06-25T05:17:22.164Z,101664.30
2018-06-25T05:19:50.540Z,101661.70
2018-06-25T05:22:19.013Z,101666.41
2018-06-25T05:24:47.396Z,101675.51
2018-06-25T05:27:17.273Z,101673.81
2018-06-25T05:29:45.632Z,101683.69
2018-06-25T05:32:14.982Z,101676.38
2018-06-25T05:34:43.360Z,101684.11
2018-06-25T05:37:11.779Z,101683.63
2018-06-25T05:39:40.311Z,101681.88
2018-06-25T05:42:13.711Z,101682.72
2018-06-25T05:44:42.508Z,101683.63
2018-06-25T05:47:10.889Z,101671.57
2018-06-25T05:49:39.369Z,101683.10
2018-06-25T05:52:07.818Z,101686.61
2018-06-25T05:54:36.221Z,101683.20
2018-06-25T05:57:04.662Z,101683.64
2018-06-25T05:59:33.057Z,101683.22
2018-06-25T06:02:01.442Z,101694.36
2018-06-25T06:04:29.887Z,101692.68
2018-06-25T06:06:59.346Z,101698.40
2018-06-25T06:09:27.821Z,101700.98
2018-06-25T06:11:56.368Z,101702.25
2018-06-25T06:14:24.758Z,101706.98
2018-06-25T06:16:53.520Z,101707.88
2018-06-25T06:19:21.997Z,101705.78
2018-06-25T06:21:50.519Z,101710.14
2018-06-25T06:24:18.952Z,101710.05
2018-06-25T06:26:47.387Z,101714.35
2018-06-25T06:29:15.799Z,101722.53
2018-06-25T06:31:44.225Z,101717.38
2018-06-25T06:34:12.802Z,101718.64
2018-06-25T06:36:41.339Z,101724.28
2018-06-25T06:39:15.236Z,101724.39
2018-06-25T06:41:45.176Z,101730.89
2018-06-25T06:44:13.639Z,101721.42
2018-06-25T06:46:42.361Z,101731.33
2018-06-25T06:49:11.313Z,101733.89
2018-06-25T06:51:39.914Z,101736.00
2018-06-25T06:54:08.381Z,101733.47
2018-06-25T06:56:36.823Z,101742.91
2018-06-25T06:59:05.289Z,101737.77
2018-06-25T07:01:33.863Z,101742.14
2018-06-25T07:04:02.304Z,101742.14
2018-06-25T07:06:30.728Z,101745.08
2018-06-25T07:08:59.855Z,101746.78
2018-06-25T07:11:28.484Z,101738.17
2018-06-25T07:13:57.004Z,101739.89
2018-06-25T07:16:25.469Z,101742.94
2018-06-25T07:18:53.993Z,101748.14
2018-06-25T07:21:22.422Z,101750.31
2018-06-25T07:23:50.915Z,101749.85
2018-06-25T07:26:22.602Z,101754.11
2018-06-25T07:28:51.083Z,101751.02
2018-06-25T07:31:19.513Z,101742.83
2018-06-25T07:33:48.063Z,101754.50
2018-06-25T07:36:17.091Z,101753.21
2018-06-25T07:38:45.845Z,101748.94
2018-06-25T07:41:16.140Z,101749.88
2018-06-25T07:43:44.709Z,101748.63
2018-06-25T07:46:13.511Z,101747.78
2018-06-25T07:48:43.062Z,101741.87
2018-06-25T07:51:11.565Z,101746.69
2018-06-25T07:53:40.841Z,101748.89
2018-06-25T07:56:09.213Z,101755.84
2018-06-25T07:58:37.694Z,101752.75
2018-06-25T08:01:06.206Z,101744.56
2018-06-25T08:03:35.300Z,101757.03
2018-06-25T08:06:03.761Z,101763.48
2018-06-25T08:08:32.286Z,101768.14
2018-06-25T08:11:00.980Z,101766.05
2018-06-25T08:13:29.422Z,101768.67
2018-06-25T08:15:57.881Z,101763.52
2018-06-25T08:18:26.814Z,101762.66
2018-06-25T08:20:55.261Z,101765.78
2018-06-25T08:23:23.733Z,101766.72
2018-06-25T08:25:53.095Z,101769.31
2018-06-25T08:28:21.598Z,101770.55
2018-06-25T08:30:50.041Z,101777.05
2018-06-25T08:33:18.552Z,101770.96
2018-06-25T08:35:47.101Z,101771.41
2018-06-25T08:38:15.541Z,101773.13
2018-06-25T08:40:44.063Z,101772.24
2018-06-25T08:43:12.461Z,101780.45
2018-06-25T08:45:40.922Z,101783.50
2018-06-25T08:48:09.332Z,101775.81
2018-06-25T08:50:37.781Z,101776.42
2018-06-25T08:53:06.187Z,101779.47
2018-06-25T08:55:34.649Z,101779.52
2018-06-25T08:58:03.107Z,101780.83
2018-06-25T09:00:31.558Z,101776.89
2018-06-25T09:03:00.056Z,101786.79
2018-06-25T09:05:28.502Z,101783.32
2018-06-25T09:07:56.971Z,101784.12
2018-06-25T09:10:25.409Z,101784.17
2018-06-25T09:12:54.173Z,101783.32
2018-06-25T09:15:22.670Z,101785.93
2018-06-25T09:17:51.138Z,101790.30
2018-06-25T09:20:19.571Z,101786.43
2018-06-25T09:22:48.024Z,101790.75
2018-06-25T09:25:16.447Z,101787.35
2018-06-25T09:27:48.706Z,101787.84
2018-06-25T09:30:18.358Z,101784.38
2018-06-25T09:32:47.671Z,101773.61
2018-06-25T09:35:16.370Z,101781.81
2018-06-25T09:37:44.850Z,101780.98
2018-06-25T09:40:13.503Z,101781.91
2018-06-25T09:42:41.885Z,101783.20
2018-06-25T09:45:11.637Z,101787.05
2018-06-25T09:47:40.112Z,101786.16
2018-06-25T09:50:08.618Z,101787.84
2018-06-25T09:52:37.509Z,101792.58
2018-06-25T09:55:06.012Z,101787.84
2018-06-25T09:57:34.375Z,101790.47
2018-06-25T10:00:02.847Z,101782.34
2018-06-25T10:02:31.229Z,101789.27
2018-06-25T10:04:59.673Z,101789.66
2018-06-25T10:07:28.097Z,101788.38
2018-06-25T10:09:57.202Z,101792.27
2018-06-25T10:12:27.611Z,101796.51
2018-06-25T10:14:56.023Z,101791.33
2018-06-25T10:17:24.461Z,101790.03
2018-06-25T10:19:52.945Z,101794.78
2018-06-25T10:22:22.182Z,101791.77
2018-06-25T10:24:50.926Z,101796.94
2018-06-25T10:27:19.355Z,101797.44
2018-06-25T10:29:47.893Z,101791.80
2018-06-25T10:32:16.357Z,101795.21
2018-06-25T10:34:44.917Z,101796.51
2018-06-25T10:37:13.346Z,101800.38
2018-06-25T10:39:41.821Z,101801.67
2018-06-25T10:42:11.185Z,101796.07
2018-06-25T10:44:39.589Z,101803.83
2018-06-25T10:47:08.270Z,101797.80
2018-06-25T10:49:37.738Z,101804.27
2018-06-25T10:52:06.685Z,101803.41
2018-06-25T10:54:35.172Z,101806.86
2018-06-25T10:57:03.635Z,101799.59
2018-06-25T10:59:32.138Z,101796.57
2018-06-25T11:02:00.572Z,101801.31
2018-06-25T11:04:29.023Z,101801.78
2018-06-25T11:06:58.167Z,101801.36
2018-06-25T11:09:26.792Z,101802.22
2018-06-25T11:11:55.254Z,101794.89
2018-06-25T11:14:25.526Z,101797.02
2018-06-25T11:16:53.980Z,101789.69
2018-06-25T11:19:22.417Z,101799.19
2018-06-25T11:21:51.018Z,101791.43
2018-06-25T11:24:19.446Z,101788.83
2018-06-25T11:26:47.910Z,101787.09
2018-06-25T11:29:16.360Z,101796.19
2018-06-25T11:31:44.808Z,101785.81
2018-06-25T11:34:13.353Z,101786.66
2018-06-25T11:36:41.989Z,101787.11
2018-06-25T11:39:11.579Z,101787.96
2018-06-25T11:41:40.079Z,101791.81
2018-06-25T11:44:08.647Z,101796.14
2018-06-25T11:46:37.097Z,101803.05
2018-06-25T11:49:07.732Z,101793.56
2018-06-25T11:51:36.634Z,101795.71
2018-06-25T11:54:05.130Z,101795.27
2018-06-25T11:56:34.521Z,101795.70
2018-06-25T11:59:03.217Z,101800.02
2018-06-25T12:01:32.805Z,101797.84
2018-06-25T12:04:01.224Z,101801.72
2018-06-25T12:06:29.667Z,101797.83
2018-06-25T12:08:58.137Z,101803.04
2018-06-25T12:11:26.564Z,101801.30
2018-06-25T12:13:55.065Z,101796.57
2018-06-25T12:16:25.612Z,101785.77
2018-06-25T12:18:54.222Z,101788.78
2018-06-25T12:21:22.632Z,101787.88
2018-06-25T12:23:51.149Z,101787.85
2018-06-25T12:26:20.277Z,101792.15
2018-06-25T12:28:49.288Z,101789.95
2018-06-25T12:31:17.689Z,101788.64
2018-06-25T12:33:46.123Z,101786.91
2018-06-25T12:36:14.593Z,101791.24
2018-06-25T12:38:42.995Z,101784.73
2018-06-25T12:41:12.410Z,101788.14
2018-06-25T12:43:40.846Z,101790.70
2018-06-25T12:46:09.419Z,101792.92
2018-06-25T12:48:38.251Z,101796.77
2018-06-25T12:51:06.664Z,101789.39
2018-06-25T12:53:35.072Z,101786.20
2018-06-25T12:56:03.851Z,101779.92
2018-06-25T12:58:32.746Z,101783.42
2018-06-25T13:01:01.261Z,101785.69
2018-06-25T13:03:29.726Z,101788.72
2018-06-25T13:05:58.208Z,101783.52
2018-06-25T13:08:26.649Z,101784.92
2018-06-25T13:10:55.808Z,101779.23
2018-06-25T13:13:24.291Z,101772.83
2018-06-25T13:15:52.745Z,101769.23
2018-06-25T13:18:21.376Z,101762.63
2018-06-25T13:20:49.821Z,101762.25
2018-06-25T13:23:18.256Z,101758.28
2018-06-25T13:25:46.681Z,101766.03
2018-06-25T13:28:15.091Z,101763.33
2018-06-25T13:30:43.553Z,101759.30
2018-06-25T13:33:12.097Z,101767.39
2018-06-25T13:35:40.487Z,101765.57
2018-06-25T13:38:09.375Z,101770.77
2018-06-25T13:40:37.780Z,101767.95
2018-06-25T13:43:06.241Z,101760.45
2018-06-25T13:45:34.735Z,101754.17
2018-06-25T13:48:03.141Z,101756.30
2018-06-25T13:50:31.609Z,101750.23
2018-06-25T13:53:00.052Z,101749.38
2018-06-25T13:55:28.512Z,101748.30
2018-06-25T13:57:57.101Z,101746.27
2018-06-25T14:00:25.563Z,101744.38
2018-06-25T14:02:53.967Z,101741.86
2018-06-25T14:05:22.368Z,101742.41
2018-06-25T14:07:50.822Z,101740.84
2018-06-25T14:10:19.297Z,101730.95
2018-06-25T14:12:47.799Z,101731.47
2018-06-25T14:15:16.277Z,101737.20
2018-06-25T14:17:44.771Z,101724.09
2018-06-25T14:20:13.368Z,101731.15
2018-06-25T14:22:42.083Z,101733.02
2018-06-25T14:25:11.457Z,101731.47
2018-06-25T14:27:45.317Z,101734.27
2018-06-25T14:30:19.128Z,101727.39
2018-06-25T14:32:54.421Z,101725.52
2018-06-25T14:35:22.864Z,101728.08
2018-06-25T14:37:51.356Z,101724.58
2018-06-25T14:40:19.795Z,101736.86
2018-06-25T14:42:48.266Z,101735.48
2018-06-25T14:45:16.666Z,101737.36
2018-06-25T14:47:45.069Z,101735.39
2018-06-25T14:50:13.532Z,101737.09
2018-06-25T14:52:41.957Z,101738.09
2018-06-25T14:55:10.418Z,101728.42
2018-06-25T14:57:38.868Z,101722.64
2018-06-25T15:00:07.263Z,101721.45
2018-06-25T15:02:35.848Z,101714.55
2018-06-25T15:05:04.287Z,101715.95
2018-06-25T15:07:32.792Z,101723.64
2018-06-25T15:10:01.219Z,101717.45
2018-06-25T15:12:30.363Z,101725.29
2018-06-25T15:14:59.023Z,101712.36
2018-06-25T15:17:27.463Z,101716.22
2018-06-25T15:19:56.158Z,101707.27
2018-06-25T15:22:24.668Z,101713.31
2018-06-25T15:24:53.242Z,101709.91
2018-06-25T15:27:21.676Z,101705.27
2018-06-25T15:29:51.246Z,101712.88
2018-06-25T15:32:20.250Z,101700.83
2018-06-25T15:34:49.807Z,101713.41
2018-06-25T15:37:18.186Z,101703.48
2018-06-25T15:39:46.600Z,101701.59
2018-06-25T15:42:15.045Z,101701.08
2018-06-25T15:44:43.628Z,101697.58
2018-06-25T15:47:12.015Z,101712.74
2018-06-25T15:49:40.732Z,101700.02
2018-06-25T15:52:09.148Z,101700.89
2018-06-25T15:54:37.591Z,101701.27
2018-06-25T15:57:06.055Z,101700.38
2018-06-25T15:59:34.483Z,101689.70
2018-06-25T16:02:03.023Z,101688.41
2018-06-25T16:04:32.128Z,101690.76
2018-06-25T16:07:01.223Z,101696.05
2018-06-25T16:09:29.456Z,101688.97
2018-06-25T16:11:57.900Z,101687.81
2018-06-25T16:14:26.672Z,101686.28
2018-06-25T16:16:55.212Z,101693.59
2018-06-25T16:19:23.691Z,101680.31
2018-06-25T16:21:52.350Z,101683.87
2018-06-25T16:24:20.863Z,101692.58
2018-06-25T16:26:49.261Z,101635.56
2018-06-25T16:29:17.680Z,101693.37
2018-06-25T16:31:46.182Z,101677.72
2018-06-25T16:34:14.685Z,101678.56
2018-06-25T16:36:43.099Z,101676.89
2018-06-25T16:39:12.730Z,101678.64
2018-06-25T16:41:41.472Z,101678.64
2018-06-25T16:44:09.968Z,101685.28
2018-06-25T16:46:39.875Z,101676.78
2018-06-25T16:49:08.370Z,101675.91
2018-06-25T16:51:36.788Z,101688.09
2018-06-25T16:54:05.355Z,101683.32
2018-06-25T16:56:33.805Z,101687.35
2018-06-25T16:59:02.276Z,101682.52
2018-06-25T17:01:31.504Z,101684.13
2018-06-25T17:04:00.039Z,101689.86
2018-06-25T17:06:29.120Z,101678.94
2018-06-25T17:08:57.869Z,101655.72
2018-06-25T17:11:26.334Z,101678.76
2018-06-25T17:13:57.147Z,101675.09
2018-06-25T17:16:25.643Z,101677.34
2018-06-25T17:18:54.028Z,101672.16
2018-06-25T17:21:22.467Z,101661.80
2018-06-25T17:23:50.995Z,101668.32
2018-06-25T17:26:19.439Z,101669.96
2018-06-25T17:28:47.936Z,101659.45
2018-06-25T17:31:16.343Z,101671.84
2018-06-25T17:33:45.832Z,101670.03
2018-06-25T17:36:14.311Z,101666.41
2018-06-25T17:38:42.783Z,101665.16
2018-06-25T17:41:11.220Z,101665.08
2018-06-25T17:43:39.650Z,101662.36
2018-06-25T17:46:08.507Z,101660.44
2018-06-25T17:48:36.947Z,101664.71
2018-06-25T17:51:05.982Z,101665.16
2018-06-25T17:53:34.429Z,101656.71
2018-06-25T17:56:04.080Z,101662.91
2018-06-25T17:58:32.561Z,101657.77
2018-06-25T18:01:01.293Z,101660.41
2018-06-25T18:03:29.720Z,101656.98
2018-06-25T18:05:58.110Z,101663.44
2018-06-25T18:08:26.508Z,101660.75
2018-06-25T18:10:54.927Z,101659.41
2018-06-25T18:13:23.340Z,101665.08
2018-06-25T18:15:51.824Z,101672.71
2018-06-25T18:18:20.273Z,101675.88
2018-06-25T18:20:49.316Z,101672.10
2018-06-25T18:23:17.598Z,101670.83
2018-06-25T18:25:46.025Z,101675.36
2018-06-25T18:28:14.462Z,101671.14
2018-06-25T18:30:43.001Z,101678.48
2018-06-25T18:33:11.420Z,101674.30
2018-06-25T18:35:39.836Z,101670.52
2018-06-25T18:38:08.348Z,101670.55
2018-06-25T18:40:36.760Z,101669.34
2018-06-25T18:43:05.409Z,101666.36
2018-06-25T18:45:33.996Z,101666.80
2018-06-25T18:48:02.541Z,101664.74
2018-06-25T18:50:31.008Z,101669.60
2018-06-25T18:52:59.459Z,101667.47
2018-06-25T18:55:28.901Z,101671.45
2018-06-25T18:57:57.424Z,101668.39
2018-06-25T19:00:25.846Z,101672.55
2018-06-25T19:02:54.295Z,101674.80
2018-06-25T19:05:22.791Z,101674.45
2018-06-25T19:07:51.793Z,101681.07
2018-06-25T19:10:20.204Z,101676.89
2018-06-25T19:12:48.642Z,101681.33
2018-06-25T19:15:17.100Z,101680.97
2018-06-25T19:17:45.583Z,101677.06
2018-06-25T19:20:14.062Z,101680.61
2018-06-25T19:22:42.522Z,101676.31
2018-06-25T19:25:10.956Z,101680.69
2018-06-25T19:27:39.361Z,101680.91
2018-06-25T19:30:07.918Z,101691.01
2018-06-25T19:32:36.405Z,101692.86
2018-06-25T19:35:04.937Z,101688.92
2018-06-25T19:37:33.352Z,101695.11
2018-06-25T19:40:01.821Z,101696.48
2018-06-25T19:42:30.355Z,101705.12
2018-06-25T19:44:58.783Z,101700.98
2018-06-25T19:47:27.245Z,101701.03
2018-06-25T19:49:55.722Z,101703.31
2018-06-25T19:52:24.176Z,101707.21
2018-06-25T19:54:52.628Z,101710.73
2018-06-25T19:57:21.349Z,101712.90
2018-06-25T19:59:49.792Z,101715.52
2018-06-25T20:02:18.383Z,101718.14
2018-06-25T20:04:47.512Z,101718.95
2018-06-25T20:07:15.937Z,101721.56
2018-06-25T20:09:44.395Z,101721.60
2018-06-25T20:12:13.246Z,101732.09
2018-06-25T20:14:41.806Z,101729.52
2018-06-25T20:17:10.695Z,101732.18
2018-06-25T20:19:39.382Z,101729.61
2018-06-25T20:22:09.034Z,101730.51
2018-06-25T20:24:38.384Z,101728.80
2018-06-25T20:27:07.453Z,101740.97
2018-06-25T20:29:37.890Z,101734.11
2018-06-25T20:32:07.544Z,101737.63
2018-06-25T20:34:36.354Z,101748.55
2018-06-25T20:37:04.846Z,101746.86
2018-06-25T20:39:33.383Z,101756.09
2018-06-25T20:42:01.781Z,101758.42
2018-06-25T20:44:30.460Z,101766.27
2018-06-25T20:46:59.604Z,101768.48
2018-06-25T20:49:28.018Z,101766.73
2018-06-25T20:51:56.793Z,101765.87
2018-06-25T20:54:25.539Z,101761.22
2018-06-25T20:56:53.968Z,101766.75
2018-06-25T20:59:22.733Z,101766.84
2018-06-25T21:01:51.998Z,101766.84
2018-06-25T21:04:20.424Z,101762.57
2018-06-25T21:06:48.895Z,101764.75
2018-06-25T21:09:17.418Z,101763.47
2018-06-25T21:11:45.857Z,101766.11
2018-06-25T21:14:15.091Z,101764.39
2018-06-25T21:16:44.177Z,101763.58
2018-06-25T21:19:12.641Z,101758.45
2018-06-25T21:21:41.180Z,101768.41
2018-06-25T21:24:09.602Z,101757.19
2018-06-25T21:26:38.311Z,101762.39
2018-06-25T21:29:06.847Z,101762.84
2018-06-25T21:31:35.347Z,101768.92
2018-06-25T21:34:03.733Z,101764.16
2018-06-25T21:36:32.162Z,101773.25
2018-06-25T21:39:00.622Z,101775.41
2018-06-25T21:41:29.500Z,101773.67
2018-06-25T21:43:57.988Z,101774.12
2018-06-25T21:46:26.430Z,101772.41
2018-06-25T21:48:54.834Z,101765.08
2018-06-25T21:51:23.353Z,101766.38
2018-06-25T21:53:53.157Z,101765.96
2018-06-25T21:56:21.619Z,101760.34
2018-06-25T21:58:50.103Z,101755.17
2018-06-25T22:01:19.261Z,101758.20
2018-06-25T22:03:47.706Z,101759.06
2018-06-25T22:06:16.181Z,101762.95
2018-06-25T22:08:45.126Z,101772.02
2018-06-25T22:11:14.166Z,101768.99
2018-06-25T22:13:42.570Z,101762.95
2018-06-25T22:16:10.954Z,101761.22
2018-06-25T22:18:39.429Z,101763.38
2018-06-25T22:21:07.968Z,101759.50
2018-06-25T22:23:36.630Z,101767.27
2018-06-25T22:26:05.717Z,101766.39
2018-06-25T22:28:34.729Z,101773.30
2018-06-25T22:31:03.922Z,101769.41
2018-06-25T22:33:32.652Z,101767.27
2018-06-25T22:36:01.202Z,101774.57
2018-06-25T22:38:29.741Z,101775.86
2018-06-25T22:40:58.157Z,101775.86
2018-06-25T22:43:26.572Z,101779.77
2018-06-25T22:45:55.989Z,101778.91
2018-06-25T22:48:24.366Z,101782.80
2018-06-25T22:50:52.830Z,101783.65
2018-06-25T22:53:21.208Z,101782.80
2018-06-25T22:55:49.649Z,101785.38
2018-06-25T22:58:18.101Z,101781.93
2018-06-25T23:00:46.509Z,101782.36
2018-06-25T23:03:15.092Z,101773.30
2018-06-25T23:05:43.975Z,101780.20
2018-06-25T23:08:12.446Z,101781.47
2018-06-25T23:10:41.401Z,101782.34
2018-06-25T23:13:09.887Z,101784.89
2018-06-25T23:15:39.271Z,101788.75
2018-06-25T23:18:07.882Z,101756.80
2018-06-25T23:20:36.304Z,101782.23
2018-06-25T23:23:04.729Z,101786.98
2018-06-25T23:25:33.985Z,101793.02
2018-06-25T23:28:02.449Z,101779.21
2018-06-25T23:30:30.889Z,101780.94
2018-06-25T23:32:59.264Z,101782.67
2018-06-25T23:35:27.689Z,101775.77
2018-06-25T23:37:56.105Z,101777.50
2018-06-25T23:40:24.536Z,101778.35
2018-06-25T23:42:53.035Z,101777.06
2018-06-25T23:45:21.380Z,101774.05
2018-06-25T23:47:49.755Z,101778.35
2018-06-25T23:50:18.173Z,101781.80
2018-06-25T23:52:46.587Z,101780.90
2018-06-25T23:55:15.218Z,101782.61
2018-06-25T23:57:45.188Z,101788.58
